createdAt,value
2022-09-26T00:00:55.660Z,984.96
2022-09-26T00:01:55.728Z,984.97
2022-09-26T00:02:55.645Z,984.92
2022-09-26T00:03:55.584Z,984.92
2022-09-26T00:04:55.576Z,984.88
2022-09-26T00:05:55.584Z,984.89
2022-09-26T00:06:55.564Z,984.90
2022-09-26T00:07:55.544Z,984.94
2022-09-26T00:08:55.550Z,984.89
2022-09-26T00:09:55.522Z,984.89
2022-09-26T00:10:55.544Z,984.89
2022-09-26T00:11:55.495Z,984.95
2022-09-26T00:12:55.543Z,984.87
2022-09-26T00:13:55.482Z,984.84
2022-09-26T00:15:52.324Z,984.84
2022-09-26T00:16:52.421Z,984.83
2022-09-26T00:17:52.314Z,984.84
2022-09-26T00:18:52.286Z,984.82
2022-09-26T00:19:52.287Z,984.83
2022-09-26T00:20:52.297Z,984.83
2022-09-26T00:21:52.275Z,984.78
2022-09-26T00:22:52.257Z,984.82
2022-09-26T00:23:52.256Z,984.79
2022-09-26T00:24:52.247Z,984.78
2022-09-26T00:25:52.266Z,984.80
2022-09-26T00:26:52.246Z,984.76
2022-09-26T00:27:52.205Z,984.77
2022-09-26T00:28:52.187Z,984.76
2022-09-26T00:29:52.185Z,984.76
2022-09-26T00:30:52.205Z,984.81
2022-09-26T00:31:52.296Z,984.76
2022-09-26T00:32:52.156Z,984.75
2022-09-26T00:33:52.149Z,984.85
2022-09-26T00:34:52.127Z,984.82
2022-09-26T00:35:52.126Z,984.81
2022-09-26T00:36:52.115Z,984.84
2022-09-26T00:37:52.128Z,984.82
2022-09-26T00:38:52.118Z,984.85
2022-09-26T00:39:52.079Z,984.85
2022-09-26T00:40:52.194Z,984.87
2022-09-26T00:41:52.057Z,984.84
2022-09-26T00:42:52.056Z,984.82
2022-09-26T00:43:52.086Z,984.84
2022-09-26T00:44:52.026Z,984.84
2022-09-26T00:45:52.098Z,984.83
2022-09-26T00:46:52.005Z,984.86
2022-09-26T00:47:52.005Z,984.84
2022-09-26T00:48:51.987Z,984.79
2022-09-26T00:49:52.027Z,984.87
2022-09-26T00:50:51.968Z,984.83
2022-09-26T00:51:51.960Z,984.81
2022-09-26T00:52:51.995Z,984.77
2022-09-26T00:53:51.954Z,984.79
2022-09-26T00:54:51.928Z,984.76
2022-09-26T00:55:52.065Z,984.75
2022-09-26T00:56:51.906Z,984.73
2022-09-26T00:57:51.908Z,984.67
2022-09-26T00:58:51.896Z,984.68
2022-09-26T00:59:51.879Z,984.67
2022-09-26T01:00:51.951Z,984.67
2022-09-26T01:01:51.981Z,984.69
2022-09-26T01:02:51.841Z,984.65
2022-09-26T01:03:51.878Z,984.62
2022-09-26T01:04:51.880Z,984.57
2022-09-26T01:05:51.918Z,984.60
2022-09-26T01:06:51.807Z,984.60
2022-09-26T01:07:51.799Z,984.52
2022-09-26T01:08:51.788Z,984.54
2022-09-26T01:09:52.729Z,984.49
2022-09-26T01:10:52.297Z,984.47
2022-09-26T01:11:52.447Z,984.44
2022-09-26T01:12:51.736Z,984.42
2022-09-26T01:13:51.749Z,984.42
2022-09-26T01:14:51.778Z,984.43
2022-09-26T01:15:51.738Z,984.43
2022-09-26T01:16:51.769Z,984.38
2022-09-26T01:17:51.709Z,984.40
2022-09-26T01:18:51.693Z,984.40
2022-09-26T01:19:51.680Z,984.46
2022-09-26T01:20:51.680Z,984.40
2022-09-26T01:21:51.665Z,984.41
2022-09-26T01:22:51.659Z,984.42
2022-09-26T01:23:51.634Z,984.47
2022-09-26T01:24:51.608Z,984.43
2022-09-26T01:25:51.698Z,984.41
2022-09-26T01:26:51.608Z,984.40
2022-09-26T01:27:51.598Z,984.41
2022-09-26T01:28:51.587Z,984.37
2022-09-26T01:29:51.611Z,984.36
2022-09-26T01:30:51.594Z,984.39
2022-09-26T01:31:51.610Z,984.35
2022-09-26T01:32:51.540Z,984.35
2022-09-26T01:33:51.540Z,984.30
2022-09-26T01:34:51.519Z,984.34
2022-09-26T01:35:51.530Z,984.32
2022-09-26T01:36:51.501Z,984.32
2022-09-26T01:37:51.500Z,984.28
2022-09-26T01:38:51.476Z,984.28
2022-09-26T01:39:51.467Z,984.31
2022-09-26T01:40:51.546Z,984.35
2022-09-26T01:41:51.788Z,984.32
2022-09-26T01:42:51.448Z,984.38
2022-09-26T01:43:51.428Z,984.33
2022-09-26T01:44:51.407Z,984.33
2022-09-26T01:45:51.524Z,984.33
2022-09-26T01:46:51.420Z,984.32
2022-09-26T01:47:51.437Z,984.30
2022-09-26T01:48:51.390Z,984.32
2022-09-26T01:49:51.381Z,984.29
2022-09-26T01:50:51.379Z,984.30
2022-09-26T01:51:51.350Z,984.27
2022-09-26T01:52:51.340Z,984.27
2022-09-26T01:53:51.868Z,984.26
2022-09-26T01:54:51.349Z,984.21
2022-09-26T01:55:51.330Z,984.19
2022-09-26T01:56:51.298Z,984.22
2022-09-26T01:57:51.290Z,984.20
2022-09-26T01:58:51.320Z,984.20
2022-09-26T01:59:51.281Z,984.14
2022-09-26T02:00:51.291Z,984.22
2022-09-26T02:01:51.286Z,984.20
2022-09-26T02:02:51.301Z,984.23
2022-09-26T02:03:51.212Z,984.22
2022-09-26T02:04:51.356Z,984.15
2022-09-26T02:05:51.212Z,984.18
2022-09-26T02:06:51.200Z,984.17
2022-09-26T02:07:51.192Z,984.12
2022-09-26T02:08:51.171Z,984.21
2022-09-26T02:09:51.181Z,984.19
2022-09-26T02:10:51.181Z,984.18
2022-09-26T02:11:51.162Z,984.18
2022-09-26T02:12:51.160Z,984.20
2022-09-26T02:13:51.127Z,984.18
2022-09-26T02:14:51.132Z,984.22
2022-09-26T02:15:51.121Z,984.13
2022-09-26T02:16:51.153Z,984.22
2022-09-26T02:17:51.080Z,984.11
2022-09-26T02:18:51.069Z,984.08
2022-09-26T02:19:51.048Z,984.08
2022-09-26T02:20:52.807Z,984.07
2022-09-26T02:21:51.068Z,984.09
2022-09-26T02:22:51.030Z,984.04
2022-09-26T02:23:51.029Z,984.03
2022-09-26T02:24:51.011Z,984.06
2022-09-26T02:25:51.100Z,984.02
2022-09-26T02:26:51.031Z,984.06
2022-09-26T02:27:51.031Z,984.05
2022-09-26T02:28:50.974Z,984.05
2022-09-26T02:29:50.961Z,984.05
2022-09-26T02:30:50.961Z,984.01
2022-09-26T02:31:50.974Z,983.99
2022-09-26T02:32:50.972Z,984.01
2022-09-26T02:33:51.004Z,983.95
2022-09-26T02:34:50.910Z,983.94
2022-09-26T02:35:51.841Z,983.97
2022-09-26T02:36:51.562Z,983.91
2022-09-26T02:37:50.898Z,983.94
2022-09-26T02:38:51.838Z,983.95
2022-09-26T02:39:50.851Z,983.97
2022-09-26T02:40:50.898Z,983.89
2022-09-26T02:41:50.843Z,983.93
2022-09-26T02:42:50.856Z,983.90
2022-09-26T02:43:50.833Z,983.87
2022-09-26T02:44:50.884Z,983.90
2022-09-26T02:45:50.809Z,983.91
2022-09-26T02:46:50.805Z,983.86
2022-09-26T02:47:50.791Z,983.88
2022-09-26T02:48:50.767Z,983.91
2022-09-26T02:49:50.783Z,983.92
2022-09-26T02:50:50.792Z,983.88
2022-09-26T02:51:50.758Z,983.85
2022-09-26T02:52:50.732Z,983.85
2022-09-26T02:53:50.722Z,983.88
2022-09-26T02:54:50.751Z,983.83
2022-09-26T02:55:50.690Z,983.85
2022-09-26T02:56:50.700Z,983.84
2022-09-26T02:57:50.674Z,983.81
2022-09-26T02:58:50.688Z,983.82
2022-09-26T02:59:50.653Z,983.77
2022-09-26T03:00:50.725Z,983.76
2022-09-26T03:01:50.692Z,983.80
2022-09-26T03:02:50.642Z,983.75
2022-09-26T03:03:50.657Z,983.74
2022-09-26T03:04:51.324Z,983.75
2022-09-26T03:05:50.593Z,983.70
2022-09-26T03:06:50.647Z,983.69
2022-09-26T03:07:50.604Z,983.68
2022-09-26T03:08:50.597Z,983.66
2022-09-26T03:09:50.593Z,983.61
2022-09-26T03:10:50.635Z,983.60
2022-09-26T03:11:50.537Z,983.57
2022-09-26T03:12:50.561Z,983.56
2022-09-26T03:13:50.563Z,983.60
2022-09-26T03:14:50.541Z,983.55
2022-09-26T03:15:50.502Z,983.54
2022-09-26T03:16:50.547Z,983.58
2022-09-26T03:17:50.471Z,983.55
2022-09-26T03:18:50.461Z,983.47
2022-09-26T03:19:50.461Z,983.54
2022-09-26T03:20:50.442Z,983.50
2022-09-26T03:21:50.455Z,983.46
2022-09-26T03:22:50.423Z,983.51
2022-09-26T03:23:50.414Z,983.51
2022-09-26T03:24:50.404Z,983.46
2022-09-26T03:25:50.403Z,983.48
2022-09-26T03:26:50.423Z,983.48
2022-09-26T03:27:50.375Z,983.46
2022-09-26T03:28:50.374Z,983.48
2022-09-26T03:29:50.341Z,983.52
2022-09-26T03:30:50.333Z,983.50
2022-09-26T03:31:50.868Z,983.51
2022-09-26T03:32:50.325Z,983.44
2022-09-26T03:33:50.303Z,983.51
2022-09-26T03:34:50.313Z,983.45
2022-09-26T03:35:50.283Z,983.44
2022-09-26T03:36:50.283Z,983.41
2022-09-26T03:37:50.286Z,983.37
2022-09-26T03:38:50.305Z,983.35
2022-09-26T03:39:50.255Z,983.41
2022-09-26T03:40:50.337Z,983.37
2022-09-26T03:41:50.225Z,983.38
2022-09-26T03:42:50.280Z,983.33
2022-09-26T03:43:50.225Z,983.33
2022-09-26T03:44:50.211Z,983.31
2022-09-26T03:45:50.260Z,983.30
2022-09-26T03:46:50.172Z,983.28
2022-09-26T03:47:50.183Z,983.30
2022-09-26T03:48:50.157Z,983.29
2022-09-26T03:49:50.142Z,983.33
2022-09-26T03:50:50.138Z,983.34
2022-09-26T03:51:50.113Z,983.33
2022-09-26T03:52:50.150Z,983.25
2022-09-26T03:53:50.115Z,983.22
2022-09-26T03:54:50.124Z,983.28
2022-09-26T03:55:50.114Z,983.26
2022-09-26T03:56:50.088Z,983.27
2022-09-26T03:57:50.074Z,983.22
2022-09-26T03:58:50.098Z,983.21
2022-09-26T03:59:50.066Z,983.20
2022-09-26T04:00:50.100Z,983.19
2022-09-26T04:01:50.075Z,983.23
2022-09-26T04:02:50.027Z,983.23
2022-09-26T04:03:51.021Z,983.18
2022-09-26T04:04:50.044Z,983.12
2022-09-26T04:05:49.984Z,983.12
2022-09-26T04:06:49.976Z,983.10
2022-09-26T04:07:49.970Z,983.11
2022-09-26T04:08:49.983Z,983.06
2022-09-26T04:09:49.953Z,983.06
2022-09-26T04:10:49.943Z,983.02
2022-09-26T04:11:49.926Z,983.11
2022-09-26T04:12:49.923Z,983.05
2022-09-26T04:13:52.786Z,983.02
2022-09-26T04:14:49.914Z,983.02
2022-09-26T04:15:49.874Z,983.03
2022-09-26T04:16:49.936Z,982.97
2022-09-26T04:17:49.857Z,983.02
2022-09-26T04:18:49.846Z,983.01
2022-09-26T04:19:49.875Z,982.96
2022-09-26T04:20:49.855Z,983.01
2022-09-26T04:21:49.876Z,983.01
2022-09-26T04:22:49.829Z,982.98
2022-09-26T04:23:50.460Z,982.95
2022-09-26T04:24:49.795Z,982.97
2022-09-26T04:25:49.784Z,982.96
2022-09-26T04:26:50.915Z,982.96
2022-09-26T04:27:49.754Z,982.94
2022-09-26T04:28:49.743Z,982.98
2022-09-26T04:29:49.733Z,982.93
2022-09-26T04:30:49.726Z,982.93
2022-09-26T04:31:49.791Z,982.95
2022-09-26T04:32:49.727Z,982.97
2022-09-26T04:33:49.696Z,982.95
2022-09-26T04:34:49.705Z,982.95
2022-09-26T04:35:49.688Z,982.92
2022-09-26T04:36:49.694Z,982.90
2022-09-26T04:37:49.665Z,982.89
2022-09-26T04:38:49.696Z,982.89
2022-09-26T04:39:49.666Z,982.89
2022-09-26T04:40:49.655Z,982.88
2022-09-26T04:41:49.615Z,982.89
2022-09-26T04:42:49.825Z,982.89
2022-09-26T04:43:49.624Z,982.86
2022-09-26T04:44:49.597Z,982.88
2022-09-26T04:45:49.639Z,982.87
2022-09-26T04:46:49.567Z,982.86
2022-09-26T04:47:49.595Z,982.86
2022-09-26T04:48:49.567Z,982.83
2022-09-26T04:49:49.551Z,982.81
2022-09-26T04:50:49.536Z,982.81
2022-09-26T04:51:49.539Z,982.78
2022-09-26T04:52:49.530Z,982.82
2022-09-26T04:53:49.497Z,982.81
2022-09-26T04:54:49.514Z,982.83
2022-09-26T04:55:49.535Z,982.84
2022-09-26T04:56:49.494Z,982.77
2022-09-26T04:57:49.456Z,982.82
2022-09-26T04:58:49.447Z,982.85
2022-09-26T04:59:49.435Z,982.79
2022-09-26T05:00:49.523Z,982.79
2022-09-26T05:01:49.496Z,982.75
2022-09-26T05:02:49.415Z,982.76
2022-09-26T05:03:49.435Z,982.72
2022-09-26T05:04:49.389Z,982.72
2022-09-26T05:05:49.377Z,982.75
2022-09-26T05:06:49.384Z,982.73
2022-09-26T05:07:49.396Z,982.75
2022-09-26T05:08:49.335Z,982.80
2022-09-26T05:09:49.336Z,982.73
2022-09-26T05:10:49.317Z,982.70
2022-09-26T05:11:49.353Z,982.80
2022-09-26T05:12:49.305Z,982.78
2022-09-26T05:13:53.379Z,982.78
2022-09-26T05:14:49.237Z,982.75
2022-09-26T05:16:46.292Z,982.74
2022-09-26T05:17:46.125Z,982.74
2022-09-26T05:18:46.072Z,982.78
2022-09-26T05:19:46.105Z,982.74
2022-09-26T05:20:46.063Z,982.77
2022-09-26T05:21:46.052Z,982.77
2022-09-26T05:22:46.023Z,982.74
2022-09-26T05:23:46.068Z,982.74
2022-09-26T05:24:46.117Z,982.74
2022-09-26T05:25:45.995Z,982.66
2022-09-26T05:26:46.034Z,982.68
2022-09-26T05:27:46.024Z,982.65
2022-09-26T05:28:45.994Z,982.68
2022-09-26T05:29:45.964Z,982.63
2022-09-26T05:30:45.950Z,982.64
2022-09-26T05:31:47.006Z,982.63
2022-09-26T05:32:46.349Z,982.64
2022-09-26T05:33:45.969Z,982.65
2022-09-26T05:34:45.903Z,982.70
2022-09-26T05:35:45.883Z,982.63
2022-09-26T05:36:46.331Z,982.63
2022-09-26T05:37:45.876Z,982.59
2022-09-26T05:38:45.874Z,982.64
2022-09-26T05:39:45.891Z,982.62
2022-09-26T05:40:45.908Z,982.60
2022-09-26T05:41:45.876Z,982.63
2022-09-26T05:42:45.855Z,982.59
2022-09-26T05:43:45.814Z,982.59
2022-09-26T05:44:45.815Z,982.63
2022-09-26T05:45:46.469Z,982.61
2022-09-26T05:46:45.845Z,982.63
2022-09-26T05:47:45.973Z,982.59
2022-09-26T05:48:45.753Z,982.60
2022-09-26T05:49:45.758Z,982.58
2022-09-26T05:50:45.804Z,982.59
2022-09-26T05:51:45.722Z,982.51
2022-09-26T05:52:45.774Z,982.57
2022-09-26T05:53:45.764Z,982.54
2022-09-26T05:54:45.731Z,982.58
2022-09-26T05:55:45.687Z,982.56
2022-09-26T05:56:45.688Z,982.56
2022-09-26T05:57:45.678Z,982.62
2022-09-26T05:58:45.704Z,982.56
2022-09-26T05:59:45.646Z,982.57
2022-09-26T06:00:45.700Z,982.56
2022-09-26T06:01:45.666Z,982.59
2022-09-26T06:02:45.662Z,982.54
2022-09-26T06:03:45.860Z,982.59
2022-09-26T06:04:45.608Z,982.57
2022-09-26T06:05:45.575Z,982.53
2022-09-26T06:06:45.576Z,982.56
2022-09-26T06:07:45.555Z,982.56
2022-09-26T06:08:45.533Z,982.59
2022-09-26T06:09:45.921Z,982.53
2022-09-26T06:10:45.526Z,982.52
2022-09-26T06:11:45.557Z,982.51
2022-09-26T06:12:50.734Z,982.52
2022-09-26T06:13:46.544Z,982.48
2022-09-26T06:14:45.519Z,982.47
2022-09-26T06:15:45.496Z,982.46
2022-09-26T06:16:45.645Z,982.48
2022-09-26T06:17:45.466Z,982.51
2022-09-26T06:18:45.446Z,982.50
2022-09-26T06:19:45.445Z,982.42
2022-09-26T06:20:45.432Z,982.43
2022-09-26T06:21:46.434Z,982.41
2022-09-26T06:22:45.414Z,982.44
2022-09-26T06:23:45.465Z,982.42
2022-09-26T06:24:45.396Z,982.45
2022-09-26T06:25:50.095Z,982.45
2022-09-26T06:26:45.355Z,982.43
2022-09-26T06:27:45.368Z,982.43
2022-09-26T06:28:45.374Z,982.41
2022-09-26T06:29:45.370Z,982.39
2022-09-26T06:30:45.373Z,982.37
2022-09-26T06:31:45.401Z,982.31
2022-09-26T06:32:45.297Z,982.37
2022-09-26T06:33:45.479Z,982.31
2022-09-26T06:34:45.316Z,982.31
2022-09-26T06:35:45.279Z,982.31
2022-09-26T06:36:45.255Z,982.35
2022-09-26T06:37:45.263Z,982.32
2022-09-26T06:38:45.244Z,982.32
2022-09-26T06:39:45.271Z,982.32
2022-09-26T06:40:45.242Z,982.33
2022-09-26T06:41:45.205Z,982.34
2022-09-26T06:42:45.224Z,982.35
2022-09-26T06:43:45.228Z,982.35
2022-09-26T06:44:45.197Z,982.36
2022-09-26T06:45:45.227Z,982.38
2022-09-26T06:46:45.186Z,982.40
2022-09-26T06:47:45.147Z,982.36
2022-09-26T06:48:45.169Z,982.37
2022-09-26T06:49:45.138Z,982.33
2022-09-26T06:50:45.119Z,982.32
2022-09-26T06:51:45.104Z,982.30
2022-09-26T06:52:45.086Z,982.26
2022-09-26T06:53:45.096Z,982.26
2022-09-26T06:54:45.106Z,982.23
2022-09-26T06:55:45.057Z,982.26
2022-09-26T06:56:45.037Z,982.17
2022-09-26T06:57:45.077Z,982.20
2022-09-26T06:58:45.035Z,982.18
2022-09-26T06:59:45.016Z,982.21
2022-09-26T07:00:45.132Z,982.18
2022-09-26T07:01:45.138Z,982.15
2022-09-26T07:02:44.988Z,982.17
2022-09-26T07:03:46.122Z,982.19
2022-09-26T07:04:44.975Z,982.13
2022-09-26T07:05:44.973Z,982.13
2022-09-26T07:06:44.938Z,982.11
2022-09-26T07:07:45.024Z,982.11
2022-09-26T07:09:01.572Z,982.11
2022-09-26T07:09:46.884Z,982.09
2022-09-26T07:10:44.901Z,982.14
2022-09-26T07:12:09.950Z,982.09
2022-09-26T07:12:45.907Z,982.12
2022-09-26T07:13:44.909Z,982.05
2022-09-26T07:14:46.368Z,982.10
2022-09-26T07:15:44.903Z,982.08
2022-09-26T07:16:45.788Z,982.05
2022-09-26T07:17:44.826Z,982.07
2022-09-26T07:18:44.836Z,982.03
2022-09-26T07:19:44.829Z,982.03
2022-09-26T07:20:44.849Z,982.07
2022-09-26T07:21:44.806Z,982.03
2022-09-26T07:22:44.778Z,982.09
2022-09-26T07:23:44.769Z,982.08
2022-09-26T07:24:44.778Z,982.11
2022-09-26T07:25:44.779Z,982.06
2022-09-26T07:26:44.778Z,982.09
2022-09-26T07:27:44.729Z,982.08
2022-09-26T07:28:44.731Z,982.03
2022-09-26T07:29:44.718Z,981.98
2022-09-26T07:30:44.726Z,982.01
2022-09-26T07:31:44.809Z,981.98
2022-09-26T07:32:44.786Z,981.95
2022-09-26T07:33:44.656Z,981.94
2022-09-26T07:34:44.658Z,981.91
2022-09-26T07:35:44.658Z,981.95
2022-09-26T07:36:44.627Z,981.96
2022-09-26T07:37:44.640Z,981.96
2022-09-26T07:38:44.616Z,981.98
2022-09-26T07:39:44.619Z,982.00
2022-09-26T07:40:44.655Z,982.06
2022-09-26T07:41:45.823Z,982.06
2022-09-26T07:42:58.444Z,982.08
2022-09-26T07:45:45.549Z,982.03
2022-09-26T07:46:44.587Z,982.05
2022-09-26T07:47:44.586Z,982.07
2022-09-26T07:48:44.526Z,981.99
2022-09-26T07:49:44.545Z,982.01
2022-09-26T07:50:44.492Z,981.99
2022-09-26T07:51:44.506Z,982.05
2022-09-26T07:52:44.477Z,981.98
2022-09-26T07:53:44.479Z,981.93
2022-09-26T07:54:44.440Z,982.01
2022-09-26T07:55:44.481Z,981.93
2022-09-26T07:56:44.452Z,981.95
2022-09-26T07:57:44.415Z,981.95
2022-09-26T07:58:44.419Z,981.92
2022-09-26T07:59:44.401Z,981.98
2022-09-26T08:00:44.458Z,981.99
2022-09-26T08:01:44.421Z,982.02
2022-09-26T08:02:44.392Z,981.95
2022-09-26T08:03:44.378Z,981.91
2022-09-26T08:04:44.333Z,981.92
2022-09-26T08:05:44.329Z,981.93
2022-09-26T08:06:44.314Z,981.90
2022-09-26T08:07:44.330Z,981.94
2022-09-26T08:08:44.370Z,981.97
2022-09-26T08:09:44.290Z,981.95
2022-09-26T08:10:44.300Z,981.98
2022-09-26T08:11:44.260Z,981.96
2022-09-26T08:12:44.258Z,981.96
2022-09-26T08:13:44.249Z,981.97
2022-09-26T08:14:44.427Z,981.91
2022-09-26T08:15:44.317Z,981.92
2022-09-26T08:16:45.177Z,981.90
2022-09-26T08:17:44.209Z,981.91
2022-09-26T08:18:44.210Z,981.88
2022-09-26T08:19:45.161Z,981.88
2022-09-26T08:20:44.204Z,981.92
2022-09-26T08:21:44.191Z,981.84
2022-09-26T08:22:44.150Z,981.83
2022-09-26T08:23:44.151Z,981.86
2022-09-26T08:24:44.171Z,981.87
2022-09-26T08:25:44.311Z,981.85
2022-09-26T08:26:44.858Z,981.81
2022-09-26T08:27:44.124Z,981.83
2022-09-26T08:28:44.103Z,981.82
2022-09-26T08:29:44.121Z,981.82
2022-09-26T08:30:44.079Z,981.80
2022-09-26T08:31:44.127Z,981.76
2022-09-26T08:32:45.019Z,981.83
2022-09-26T08:33:44.041Z,981.81
2022-09-26T08:34:44.031Z,981.81
2022-09-26T08:35:44.047Z,981.80
2022-09-26T08:36:44.010Z,981.75
2022-09-26T08:37:44.022Z,981.75
2022-09-26T08:38:44.011Z,981.78
2022-09-26T08:39:44.013Z,981.75
2022-09-26T08:40:44.046Z,981.77
2022-09-26T08:41:43.992Z,981.73
2022-09-26T08:42:44.915Z,981.68
2022-09-26T08:43:43.999Z,981.69
2022-09-26T08:44:43.953Z,981.68
2022-09-26T08:45:47.457Z,981.66
2022-09-26T08:46:44.007Z,981.66
2022-09-26T08:47:43.919Z,981.68
2022-09-26T08:48:43.925Z,981.67
2022-09-26T08:49:43.891Z,981.69
2022-09-26T08:50:43.888Z,981.65
2022-09-26T08:51:43.873Z,981.58
2022-09-26T08:52:43.862Z,981.60
2022-09-26T08:53:43.863Z,981.60
2022-09-26T08:54:43.875Z,981.61
2022-09-26T08:55:43.853Z,981.61
2022-09-26T08:56:43.840Z,981.57
2022-09-26T08:57:43.821Z,981.61
2022-09-26T08:58:43.853Z,981.56
2022-09-26T08:59:43.759Z,981.61
2022-09-26T09:00:43.782Z,981.55
2022-09-26T09:01:43.863Z,981.59
2022-09-26T09:02:43.908Z,981.55
2022-09-26T09:03:43.731Z,981.62
2022-09-26T09:04:43.714Z,981.57
2022-09-26T09:05:43.751Z,981.55
2022-09-26T09:06:43.701Z,981.53
2022-09-26T09:07:43.705Z,981.55
2022-09-26T09:08:43.673Z,981.50
2022-09-26T09:09:43.672Z,981.51
2022-09-26T09:10:43.673Z,981.47
2022-09-26T09:11:43.910Z,981.46
2022-09-26T09:12:43.651Z,981.45
2022-09-26T09:13:43.645Z,981.40
2022-09-26T09:14:43.621Z,981.42
2022-09-26T09:15:43.636Z,981.42
2022-09-26T09:16:43.610Z,981.47
2022-09-26T09:17:43.633Z,981.41
2022-09-26T09:18:43.614Z,981.38
2022-09-26T09:19:43.583Z,981.40
2022-09-26T09:20:43.563Z,981.41
2022-09-26T09:21:43.561Z,981.37
2022-09-26T09:22:43.543Z,981.41
2022-09-26T09:23:43.541Z,981.39
2022-09-26T09:24:43.511Z,981.33
2022-09-26T09:25:48.295Z,981.35
2022-09-26T09:28:05.481Z,981.35
2022-09-26T09:28:44.481Z,981.36
2022-09-26T09:29:48.896Z,981.39
2022-09-26T09:30:45.150Z,981.27
2022-09-26T09:31:43.516Z,981.29
2022-09-26T09:32:43.444Z,981.33
2022-09-26T09:33:43.424Z,981.30
2022-09-26T09:34:43.413Z,981.26
2022-09-26T09:35:43.413Z,981.26
2022-09-26T09:36:43.423Z,981.23
2022-09-26T09:37:43.394Z,981.23
2022-09-26T09:38:43.374Z,981.24
2022-09-26T09:39:43.399Z,981.27
2022-09-26T09:40:43.378Z,981.29
2022-09-26T09:41:43.342Z,981.22
2022-09-26T09:42:43.343Z,981.15
2022-09-26T09:43:43.320Z,981.26
2022-09-26T09:44:46.801Z,981.17
2022-09-26T09:45:43.312Z,981.15
2022-09-26T09:46:43.382Z,981.17
2022-09-26T09:47:43.324Z,981.11
2022-09-26T09:48:43.304Z,981.16
2022-09-26T09:49:43.277Z,981.16
2022-09-26T09:50:43.253Z,981.12
2022-09-26T09:51:43.254Z,981.05
2022-09-26T09:52:43.245Z,981.02
2022-09-26T09:53:43.284Z,981.07
2022-09-26T09:54:43.239Z,981.05
2022-09-26T09:55:43.192Z,981.11
2022-09-26T09:56:43.213Z,981.08
2022-09-26T09:57:43.202Z,981.06
2022-09-26T09:58:43.210Z,981.00
2022-09-26T09:59:43.182Z,981.06
2022-09-26T10:00:45.590Z,981.01
2022-09-26T10:01:43.143Z,981.06
2022-09-26T10:02:43.167Z,980.98
2022-09-26T10:03:43.144Z,980.96
2022-09-26T10:04:43.134Z,980.93
2022-09-26T10:05:43.099Z,980.92
2022-09-26T10:06:44.195Z,980.89
2022-09-26T10:07:43.109Z,980.89
2022-09-26T10:08:43.064Z,980.90
2022-09-26T10:09:43.055Z,980.89
2022-09-26T10:10:43.052Z,980.83
2022-09-26T10:11:43.039Z,980.86
2022-09-26T10:12:43.026Z,980.82
2022-09-26T10:13:43.029Z,980.77
2022-09-26T10:14:43.018Z,980.74
2022-09-26T10:15:43.074Z,980.80
2022-09-26T10:17:39.716Z,980.71
2022-09-26T10:18:39.744Z,980.69
2022-09-26T10:19:39.612Z,980.67
2022-09-26T10:20:39.591Z,980.63
2022-09-26T10:21:39.608Z,980.64
2022-09-26T10:22:39.595Z,980.65
2022-09-26T10:23:39.619Z,980.60
2022-09-26T10:24:39.592Z,980.60
2022-09-26T10:25:39.552Z,980.59
2022-09-26T10:26:39.537Z,980.62
2022-09-26T10:27:39.557Z,980.58
2022-09-26T10:28:39.564Z,980.61
2022-09-26T10:29:39.543Z,980.56
2022-09-26T10:30:39.515Z,980.59
2022-09-26T10:31:42.660Z,980.45
2022-09-26T10:32:39.494Z,980.51
2022-09-26T10:33:39.493Z,980.52
2022-09-26T10:34:39.473Z,980.48
2022-09-26T10:35:39.469Z,980.44
2022-09-26T10:36:39.445Z,980.47
2022-09-26T10:37:39.424Z,980.49
2022-09-26T10:38:39.431Z,980.38
2022-09-26T10:39:39.409Z,980.39
2022-09-26T10:40:39.426Z,980.37
2022-09-26T10:41:39.392Z,980.36
2022-09-26T10:42:39.373Z,980.35
2022-09-26T10:43:39.385Z,980.33
2022-09-26T10:44:39.366Z,980.33
2022-09-26T10:45:39.361Z,980.28
2022-09-26T10:46:39.382Z,980.30
2022-09-26T10:47:39.334Z,980.26
2022-09-26T10:48:39.344Z,980.25
2022-09-26T10:49:39.315Z,980.31
2022-09-26T10:50:39.318Z,980.27
2022-09-26T10:51:39.333Z,980.29
2022-09-26T10:52:39.271Z,980.22
2022-09-26T10:53:39.293Z,980.26
2022-09-26T10:54:39.253Z,980.16
2022-09-26T10:55:39.264Z,980.21
2022-09-26T10:56:39.264Z,980.19
2022-09-26T10:57:39.221Z,980.22
2022-09-26T10:58:40.159Z,980.17
2022-09-26T10:59:40.183Z,980.22
2022-09-26T11:00:39.205Z,980.13
2022-09-26T11:01:39.250Z,980.13
2022-09-26T11:02:39.183Z,980.19
2022-09-26T11:03:39.223Z,980.21
2022-09-26T11:04:39.175Z,980.13
2022-09-26T11:05:39.172Z,980.12
2022-09-26T11:06:39.141Z,980.15
2022-09-26T11:07:39.134Z,980.10
2022-09-26T11:08:39.145Z,980.10
2022-09-26T11:09:39.124Z,980.07
2022-09-26T11:10:39.154Z,979.98
2022-09-26T11:11:39.129Z,980.01
2022-09-26T11:12:39.104Z,980.02
2022-09-26T11:13:39.075Z,980.01
2022-09-26T11:14:39.065Z,979.94
2022-09-26T11:15:39.093Z,979.92
2022-09-26T11:16:39.131Z,979.92
2022-09-26T11:17:39.041Z,979.96
2022-09-26T11:18:39.035Z,979.87
2022-09-26T11:19:39.020Z,979.89
2022-09-26T11:20:39.011Z,979.91
2022-09-26T11:21:39.004Z,979.83
2022-09-26T11:22:38.993Z,979.87
2022-09-26T11:23:38.967Z,979.81
2022-09-26T11:25:51.431Z,979.79
2022-09-26T11:26:49.571Z,979.80
2022-09-26T11:27:49.543Z,979.75
2022-09-26T11:28:49.532Z,979.70
2022-09-26T11:31:00.206Z,979.63
2022-09-26T11:32:00.542Z,979.67
2022-09-26T11:33:00.158Z,979.71
2022-09-26T11:34:00.138Z,979.66
2022-09-26T11:35:00.137Z,979.63
2022-09-26T11:36:00.179Z,979.63
2022-09-26T11:37:00.126Z,979.69
2022-09-26T11:38:00.132Z,979.62
2022-09-26T11:39:00.101Z,979.68
2022-09-26T11:40:00.074Z,979.68
2022-09-26T11:41:00.137Z,979.64
2022-09-26T11:42:00.041Z,979.64
2022-09-26T11:43:00.062Z,979.61
2022-09-26T11:44:00.030Z,979.56
2022-09-26T11:45:00.037Z,979.52
2022-09-26T11:46:00.059Z,979.57
2022-09-26T11:46:59.989Z,979.53
2022-09-26T11:47:59.979Z,979.51
2022-09-26T11:48:59.989Z,979.45
2022-09-26T11:49:59.978Z,979.48
2022-09-26T11:50:59.948Z,979.49
2022-09-26T11:52:00.579Z,979.45
2022-09-26T11:52:59.949Z,979.45
2022-09-26T11:54:00.130Z,979.38
2022-09-26T11:54:59.920Z,979.38
2022-09-26T11:55:59.902Z,979.36
2022-09-26T11:56:59.916Z,979.32
2022-09-26T11:58:03.229Z,979.31
2022-09-26T11:58:59.890Z,979.35
2022-09-26T11:59:59.880Z,979.31
2022-09-26T12:00:59.849Z,979.36
2022-09-26T12:01:59.841Z,979.41
2022-09-26T12:02:59.939Z,979.34
2022-09-26T12:03:59.924Z,979.37
2022-09-26T12:04:59.811Z,979.33
2022-09-26T12:05:59.849Z,979.32
2022-09-26T12:06:59.792Z,979.33
2022-09-26T12:07:59.771Z,979.31
2022-09-26T12:08:59.783Z,979.27
2022-09-26T12:09:59.789Z,979.25
2022-09-26T12:10:59.779Z,979.25
2022-09-26T12:11:59.791Z,979.20
2022-09-26T12:12:59.730Z,979.18
2022-09-26T12:13:59.717Z,979.23
2022-09-26T12:14:59.710Z,979.22
2022-09-26T12:15:59.789Z,979.17
2022-09-26T12:16:59.730Z,979.16
2022-09-26T12:17:59.683Z,979.16
2022-09-26T12:18:59.682Z,979.15
2022-09-26T12:19:59.662Z,979.08
2022-09-26T12:20:59.660Z,979.16
2022-09-26T12:21:59.653Z,979.07
2022-09-26T12:22:59.662Z,979.04
2022-09-26T12:23:59.642Z,978.96
2022-09-26T12:24:59.642Z,978.95
2022-09-26T12:25:59.601Z,978.95
2022-09-26T12:26:59.591Z,978.91
2022-09-26T12:27:59.613Z,978.90
2022-09-26T12:28:59.571Z,978.82
2022-09-26T12:29:59.550Z,978.86
2022-09-26T12:30:59.629Z,978.83
2022-09-26T12:31:59.542Z,978.87
2022-09-26T12:32:59.530Z,978.85
2022-09-26T12:33:59.531Z,978.83
2022-09-26T12:34:59.523Z,978.83
2022-09-26T12:35:59.571Z,978.86
2022-09-26T12:36:59.493Z,978.82